sensor_id;sensor_type;location;lat;lon;timestamp;P1;durP1;ratioP1;P2;durP2;ratioP2
76758;SDS011;65701;45.588;5.186;2023-11-19T08:55:12;3.00;;;1.00;;
76758;SDS011;65701;45.588;5.186;2023-11-19T08:57:38;8.75;;;7.00;;
76758;SDS011;65701;45.588;5.186;2023-11-19T09:00:04;14.00;;;12.25;;
76758;SDS011;65701;45.588;5.186;2023-11-19T09:02:34;18.50;;;17.00;;
76758;SDS011;65701;45.588;5.186;2023-11-19T09:05:02;16.25;;;16.25;;
76758;SDS011;65701;45.588;5.186;2023-11-19T09:07:27;17.25;;;15.25;;
76758;SDS011;65701;45.588;5.186;2023-11-19T09:09:53;16.50;;;16.00;;
76758;SDS011;65701;45.588;5.186;2023-11-19T09:12:18;15.00;;;13.50;;
76758;SDS011;65701;45.588;5.186;2023-11-19T09:14:44;14.75;;;13.00;;
76758;SDS011;65701;45.588;5.186;2023-11-19T09:17:10;13.25;;;13.25;;
76758;SDS011;65701;45.588;5.186;2023-11-19T09:19:36;14.00;;;14.00;;
76758;SDS011;65701;45.588;5.186;2023-11-19T09:22:02;16.75;;;14.75;;
76758;SDS011;65701;45.588;5.186;2023-11-19T09:24:27;12.75;;;12.25;;
76758;SDS011;65701;45.588;5.186;2023-11-19T09:26:53;12.25;;;10.00;;
76758;SDS011;65701;45.588;5.186;2023-11-19T09:29:20;13.25;;;10.00;;
76758;SDS011;65701;45.588;5.186;2023-11-19T09:31:46;10.25;;;10.25;;
76758;SDS011;65701;45.588;5.186;2023-11-19T09:34:12;8.00;;;8.00;;
76758;SDS011;65701;45.588;5.186;2023-11-19T09:36:37;10.75;;;8.75;;
76758;SDS011;65701;45.588;5.186;2023-11-19T09:39:02;11.75;;;11.75;;
76758;SDS011;65701;45.588;5.186;2023-11-19T09:41:29;11.00;;;10.00;;
76758;SDS011;65701;45.588;5.186;2023-11-19T09:43:56;9.75;;;9.75;;
76758;SDS011;65701;45.588;5.186;2023-11-19T09:46:21;8.00;;;8.00;;
76758;SDS011;65701;45.588;5.186;2023-11-19T09:48:49;9.75;;;9.00;;
76758;SDS011;65701;45.588;5.186;2023-11-19T09:51:19;12.75;;;8.00;;
76758;SDS011;65701;45.588;5.186;2023-11-19T09:53:45;9.25;;;8.50;;
76758;SDS011;65701;45.588;5.186;2023-11-19T09:56:11;7.25;;;7.25;;
76758;SDS011;65701;45.588;5.186;2023-11-19T09:58:37;11.00;;;8.75;;
76758;SDS011;65701;45.588;5.186;2023-11-19T10:01:03;8.75;;;8.25;;
76758;SDS011;65701;45.588;5.186;2023-11-19T10:03:32;9.00;;;9.00;;
76758;SDS011;65701;45.588;5.186;2023-11-19T10:06:00;9.75;;;9.00;;
76758;SDS011;65701;45.588;5.186;2023-11-19T10:08:27;11.00;;;9.50;;
76758;SDS011;65701;45.588;5.186;2023-11-19T10:10:53;16.75;;;14.25;;
76758;SDS011;65701;45.588;5.186;2023-11-19T10:13:18;12.50;;;12.50;;
76758;SDS011;65701;45.588;5.186;2023-11-19T10:15:44;10.00;;;10.00;;
76758;SDS011;65701;45.588;5.186;2023-11-19T10:18:09;15.75;;;13.75;;
76758;SDS011;65701;45.588;5.186;2023-11-19T10:20:40;15.50;;;13.00;;
76758;SDS011;65701;45.588;5.186;2023-11-19T10:23:06;13.50;;;13.00;;
76758;SDS011;65701;45.588;5.186;2023-11-19T10:25:32;13.75;;;13.75;;
76758;SDS011;65701;45.588;5.186;2023-11-19T10:27:58;15.75;;;14.00;;
76758;SDS011;65701;45.588;5.186;2023-11-19T10:30:25;19.00;;;15.75;;
76758;SDS011;65701;45.588;5.186;2023-11-19T10:33:08;18.00;;;16.00;;
76758;SDS011;65701;45.588;5.186;2023-11-19T10:35:51;16.00;;;13.75;;
76758;SDS011;65701;45.588;5.186;2023-11-19T10:38:21;9.00;;;9.00;;
76758;SDS011;65701;45.588;5.186;2023-11-19T10:40:48;16.50;;;14.00;;
76758;SDS011;65701;45.588;5.186;2023-11-19T10:43:14;21.75;;;15.25;;
76758;SDS011;65701;45.588;5.186;2023-11-19T10:45:40;15.25;;;15.25;;
76758;SDS011;65701;45.588;5.186;2023-11-19T10:48:06;15.00;;;13.75;;
76758;SDS011;65701;45.588;5.186;2023-11-19T10:50:39;16.50;;;14.25;;
76758;SDS011;65701;45.588;5.186;2023-11-19T10:53:06;18.00;;;15.25;;
76758;SDS011;65701;45.588;5.186;2023-11-19T10:55:38;11.50;;;11.50;;
76758;SDS011;65701;45.588;5.186;2023-11-19T10:58:08;13.25;;;11.25;;
76758;SDS011;65701;45.588;5.186;2023-11-19T11:00:38;13.50;;;13.50;;
76758;SDS011;65701;45.588;5.186;2023-11-19T11:03:14;13.25;;;11.00;;
76758;SDS011;65701;45.588;5.186;2023-11-19T11:05:42;12.50;;;12.25;;
76758;SDS011;65701;45.588;5.186;2023-11-19T11:08:08;17.75;;;17.00;;
76758;SDS011;65701;45.588;5.186;2023-11-19T11:10:37;18.75;;;16.00;;
76758;SDS011;65701;45.588;5.186;2023-11-19T11:13:07;17.25;;;14.50;;
76758;SDS011;65701;45.588;5.186;2023-11-19T11:15:33;16.50;;;13.50;;
76758;SDS011;65701;45.588;5.186;2023-11-19T11:18:00;15.00;;;15.00;;
76758;SDS011;65701;45.588;5.186;2023-11-19T11:20:27;16.25;;;15.00;;
76758;SDS011;65701;45.588;5.186;2023-11-19T11:34:45;14.75;;;14.75;;
76758;SDS011;65701;45.588;5.186;2023-11-19T11:40:04;12.00;;;12.00;;
76758;SDS011;65701;45.588;5.186;2023-11-19T11:42:35;15.25;;;15.25;;
76758;SDS011;65701;45.588;5.186;2023-11-19T11:45:05;12.00;;;12.00;;
76758;SDS011;65701;45.588;5.186;2023-11-19T11:50:12;13.75;;;13.25;;
76758;SDS011;65701;45.588;5.186;2023-11-19T11:56:05;15.75;;;13.75;;
76758;SDS011;65701;45.588;5.186;2023-11-19T11:58:18;15.00;;;13.75;;
76758;SDS011;65701;45.588;5.186;2023-11-19T12:00:56;6.00;;;4.00;;
76758;SDS011;65701;45.588;5.186;2023-11-19T12:03:22;17.75;;;15.75;;
76758;SDS011;65701;45.588;5.186;2023-11-19T12:05:48;19.25;;;16.00;;
76758;SDS011;65701;45.588;5.186;2023-11-19T12:08:15;18.50;;;17.00;;
76758;SDS011;65701;45.588;5.186;2023-11-19T12:10:46;21.50;;;17.75;;
76758;SDS011;65701;45.588;5.186;2023-11-19T12:13:16;18.00;;;13.50;;
76758;SDS011;65701;45.588;5.186;2023-11-19T12:18:30;15.00;;;13.75;;
76758;SDS011;65701;45.588;5.186;2023-11-19T12:20:57;13.25;;;13.25;;
76758;SDS011;65701;45.588;5.186;2023-11-19T12:23:27;17.50;;;15.75;;
76758;SDS011;65701;45.588;5.186;2023-11-19T12:25:54;18.75;;;17.75;;
76758;SDS011;65701;45.588;5.186;2023-11-19T12:28:20;19.00;;;18.50;;
76758;SDS011;65701;45.588;5.186;2023-11-19T12:30:46;15.75;;;15.50;;
76758;SDS011;65701;45.588;5.186;2023-11-19T12:33:14;18.25;;;16.25;;
76758;SDS011;65701;45.588;5.186;2023-11-19T12:35:41;14.25;;;14.00;;
76758;SDS011;65701;45.588;5.186;2023-11-19T12:38:30;13.75;;;13.75;;
76758;SDS011;65701;45.588;5.186;2023-11-19T12:41:04;12.25;;;12.25;;
76758;SDS011;65701;45.588;5.186;2023-11-19T12:43:36;14.00;;;13.25;;
76758;SDS011;65701;45.588;5.186;2023-11-19T12:46:03;14.75;;;14.50;;
76758;SDS011;65701;45.588;5.186;2023-11-19T12:48:47;15.75;;;12.75;;
76758;SDS011;65701;45.588;5.186;2023-11-19T12:51:14;14.25;;;13.75;;
76758;SDS011;65701;45.588;5.186;2023-11-19T12:53:49;14.75;;;12.50;;
76758;SDS011;65701;45.588;5.186;2023-11-19T12:56:19;15.50;;;15.25;;
76758;SDS011;65701;45.588;5.186;2023-11-19T12:58:44;14.50;;;12.25;;
76758;SDS011;65701;45.588;5.186;2023-11-19T13:01:14;17.25;;;15.75;;
76758;SDS011;65701;45.588;5.186;2023-11-19T13:03:42;14.25;;;13.00;;
76758;SDS011;65701;45.588;5.186;2023-11-19T13:06:09;15.75;;;15.75;;
76758;SDS011;65701;45.588;5.186;2023-11-19T13:08:37;17.75;;;16.00;;
76758;SDS011;65701;45.588;5.186;2023-11-19T13:11:03;18.75;;;18.00;;
76758;SDS011;65701;45.588;5.186;2023-11-19T13:13:29;15.50;;;15.00;;
76758;SDS011;65701;45.588;5.186;2023-11-19T13:16:07;19.50;;;16.25;;
76758;SDS011;65701;45.588;5.186;2023-11-19T13:18:34;16.00;;;16.00;;
76758;SDS011;65701;45.588;5.186;2023-11-19T13:20:59;19.00;;;16.25;;
76758;SDS011;65701;45.588;5.186;2023-11-19T13:23:25;17.00;;;16.00;;
76758;SDS011;65701;45.588;5.186;2023-11-19T13:25:51;15.25;;;12.75;;
76758;SDS011;65701;45.588;5.186;2023-11-19T13:28:16;16.00;;;15.25;;
76758;SDS011;65701;45.588;5.186;2023-11-19T13:30:42;17.25;;;16.00;;
76758;SDS011;65701;45.588;5.186;2023-11-19T13:33:07;18.50;;;18.00;;
76758;SDS011;65701;45.588;5.186;2023-11-19T13:35:35;17.50;;;15.00;;
76758;SDS011;65701;45.588;5.186;2023-11-19T13:38:01;17.50;;;16.25;;
76758;SDS011;65701;45.588;5.186;2023-11-19T13:40:27;15.75;;;15.50;;
76758;SDS011;65701;45.588;5.186;2023-11-19T13:42:53;18.00;;;16.50;;
76758;SDS011;65701;45.588;5.186;2023-11-19T13:45:18;21.25;;;18.50;;
76758;SDS011;65701;45.588;5.186;2023-11-19T13:47:45;20.25;;;18.00;;
76758;SDS011;65701;45.588;5.186;2023-11-19T13:50:14;17.50;;;16.25;;
76758;SDS011;65701;45.588;5.186;2023-11-19T13:52:42;18.25;;;15.25;;
76758;SDS011;65701;45.588;5.186;2023-11-19T13:55:10;14.50;;;14.00;;
76758;SDS011;65701;45.588;5.186;2023-11-19T13:57:36;20.25;;;17.25;;
76758;SDS011;65701;45.588;5.186;2023-11-19T14:00:02;22.50;;;18.25;;
76758;SDS011;65701;45.588;5.186;2023-11-19T14:02:32;18.00;;;18.00;;
76758;SDS011;65701;45.588;5.186;2023-11-19T14:04:58;18.00;;;17.25;;
76758;SDS011;65701;45.588;5.186;2023-11-19T14:07:24;20.75;;;19.00;;
76758;SDS011;65701;45.588;5.186;2023-11-19T14:09:52;35.25;;;30.75;;
76758;SDS011;65701;45.588;5.186;2023-11-19T14:12:18;18.00;;;15.00;;
76758;SDS011;65701;45.588;5.186;2023-11-19T14:14:43;19.75;;;17.00;;
76758;SDS011;65701;45.588;5.186;2023-11-19T14:17:09;16.00;;;13.00;;
76758;SDS011;65701;45.588;5.186;2023-11-19T14:19:37;16.00;;;15.75;;
76758;SDS011;65701;45.588;5.186;2023-11-19T14:22:04;17.50;;;15.00;;
76758;SDS011;65701;45.588;5.186;2023-11-19T14:24:30;16.50;;;15.50;;
76758;SDS011;65701;45.588;5.186;2023-11-19T14:26:56;18.75;;;17.25;;
76758;SDS011;65701;45.588;5.186;2023-11-19T14:29:23;17.50;;;17.50;;
76758;SDS011;65701;45.588;5.186;2023-11-19T14:31:51;20.25;;;18.75;;
76758;SDS011;65701;45.588;5.186;2023-11-19T14:34:36;21.25;;;20.25;;
76758;SDS011;65701;45.588;5.186;2023-11-19T14:37:30;15.00;;;15.00;;
76758;SDS011;65701;45.588;5.186;2023-11-19T14:39:56;15.50;;;15.50;;
76758;SDS011;65701;45.588;5.186;2023-11-19T14:42:22;17.00;;;17.00;;
76758;SDS011;65701;45.588;5.186;2023-11-19T14:44:49;20.75;;;19.50;;
76758;SDS011;65701;45.588;5.186;2023-11-19T14:47:14;20.25;;;17.50;;
76758;SDS011;65701;45.588;5.186;2023-11-19T14:49:40;20.50;;;18.50;;
76758;SDS011;65701;45.588;5.186;2023-11-19T14:52:06;25.25;;;20.50;;
76758;SDS011;65701;45.588;5.186;2023-11-19T14:54:31;18.50;;;18.50;;
76758;SDS011;65701;45.588;5.186;2023-11-19T14:56:57;17.00;;;16.50;;
76758;SDS011;65701;45.588;5.186;2023-11-19T14:59:24;16.75;;;14.75;;
76758;SDS011;65701;45.588;5.186;2023-11-19T15:01:50;18.50;;;18.50;;
76758;SDS011;65701;45.588;5.186;2023-11-19T15:04:15;13.50;;;13.50;;
76758;SDS011;65701;45.588;5.186;2023-11-19T15:06:41;16.50;;;15.75;;
76758;SDS011;65701;45.588;5.186;2023-11-19T15:09:07;17.75;;;15.75;;
76758;SDS011;65701;45.588;5.186;2023-11-19T15:11:33;14.50;;;14.25;;
76758;SDS011;65701;45.588;5.186;2023-11-19T15:13:58;12.75;;;12.50;;
76758;SDS011;65701;45.588;5.186;2023-11-19T15:16:24;17.50;;;12.75;;
76758;SDS011;65701;45.588;5.186;2023-11-19T15:18:58;12.50;;;12.50;;
76758;SDS011;65701;45.588;5.186;2023-11-19T15:21:28;13.25;;;13.25;;
76758;SDS011;65701;45.588;5.186;2023-11-19T15:23:54;17.75;;;15.75;;
76758;SDS011;65701;45.588;5.186;2023-11-19T15:26:21;20.00;;;14.00;;
76758;SDS011;65701;45.588;5.186;2023-11-19T15:28:47;14.25;;;14.25;;
76758;SDS011;65701;45.588;5.186;2023-11-19T15:31:14;17.25;;;15.25;;
76758;SDS011;65701;45.588;5.186;2023-11-19T15:33:41;15.50;;;12.75;;
76758;SDS011;65701;45.588;5.186;2023-11-19T15:36:07;13.00;;;12.50;;
76758;SDS011;65701;45.588;5.186;2023-11-19T15:38:34;19.00;;;14.25;;
76758;SDS011;65701;45.588;5.186;2023-11-19T15:41:00;17.00;;;16.75;;
76758;SDS011;65701;45.588;5.186;2023-11-19T15:43:27;15.50;;;13.25;;
76758;SDS011;65701;45.588;5.186;2023-11-19T15:45:54;16.00;;;16.00;;
76758;SDS011;65701;45.588;5.186;2023-11-19T15:48:21;17.50;;;14.50;;
76758;SDS011;65701;45.588;5.186;2023-11-19T15:50:46;23.75;;;20.00;;
76758;SDS011;65701;45.588;5.186;2023-11-19T15:53:12;14.00;;;14.00;;
76758;SDS011;65701;45.588;5.186;2023-11-19T15:55:37;16.75;;;15.25;;
76758;SDS011;65701;45.588;5.186;2023-11-19T15:58:03;18.00;;;16.50;;
76758;SDS011;65701;45.588;5.186;2023-11-19T16:00:31;18.50;;;16.00;;
76758;SDS011;65701;45.588;5.186;2023-11-19T16:02:57;22.00;;;22.00;;
76758;SDS011;65701;45.588;5.186;2023-11-19T16:05:23;20.25;;;17.25;;
76758;SDS011;65701;45.588;5.186;2023-11-19T16:07:51;25.50;;;20.25;;
76758;SDS011;65701;45.588;5.186;2023-11-19T16:10:17;22.25;;;22.25;;
76758;SDS011;65701;45.588;5.186;2023-11-19T16:12:45;27.75;;;26.00;;
76758;SDS011;65701;45.588;5.186;2023-11-19T16:15:11;31.75;;;27.25;;
76758;SDS011;65701;45.588;5.186;2023-11-19T16:17:38;13.75;;;12.00;;
76758;SDS011;65701;45.588;5.186;2023-11-19T16:20:04;36.50;;;31.75;;
76758;SDS011;65701;45.588;5.186;2023-11-19T16:22:35;40.75;;;34.50;;
76758;SDS011;65701;45.588;5.186;2023-11-19T16:25:00;37.00;;;33.00;;
76758;SDS011;65701;45.588;5.186;2023-11-19T16:27:27;23.50;;;23.50;;
76758;SDS011;65701;45.588;5.186;2023-11-19T16:29:53;23.25;;;23.25;;
76758;SDS011;65701;45.588;5.186;2023-11-19T16:32:18;15.50;;;15.50;;
76758;SDS011;65701;45.588;5.186;2023-11-19T16:34:44;25.00;;;23.50;;
76758;SDS011;65701;45.588;5.186;2023-11-19T16:37:13;30.50;;;29.25;;
76758;SDS011;65701;45.588;5.186;2023-11-19T16:39:41;35.00;;;31.50;;
76758;SDS011;65701;45.588;5.186;2023-11-19T16:42:07;34.50;;;30.75;;
76758;SDS011;65701;45.588;5.186;2023-11-19T16:44:33;32.50;;;29.25;;
76758;SDS011;65701;45.588;5.186;2023-11-19T16:46:59;33.75;;;29.25;;
76758;SDS011;65701;45.588;5.186;2023-11-19T16:49:25;26.50;;;25.00;;
76758;SDS011;65701;45.588;5.186;2023-11-19T16:51:51;26.75;;;24.75;;
76758;SDS011;65701;45.588;5.186;2023-11-19T16:54:17;32.25;;;30.25;;
76758;SDS011;65701;45.588;5.186;2023-11-19T16:56:44;27.00;;;24.75;;
76758;SDS011;65701;45.588;5.186;2023-11-19T16:59:09;23.25;;;21.75;;
76758;SDS011;65701;45.588;5.186;2023-11-19T17:01:35;28.25;;;24.50;;
76758;SDS011;65701;45.588;5.186;2023-11-19T17:04:02;23.25;;;19.00;;
76758;SDS011;65701;45.588;5.186;2023-11-19T17:06:29;27.00;;;24.25;;
76758;SDS011;65701;45.588;5.186;2023-11-19T17:08:55;50.00;;;40.75;;
76758;SDS011;65701;45.588;5.186;2023-11-19T17:11:21;73.00;;;60.25;;
76758;SDS011;65701;45.588;5.186;2023-11-19T17:13:46;46.00;;;39.00;;
76758;SDS011;65701;45.588;5.186;2023-11-19T17:16:12;39.00;;;33.25;;
76758;SDS011;65701;45.588;5.186;2023-11-19T17:18:38;25.00;;;23.50;;
76758;SDS011;65701;45.588;5.186;2023-11-19T17:21:05;19.00;;;17.75;;
76758;SDS011;65701;45.588;5.186;2023-11-19T17:23:30;26.00;;;23.75;;
76758;SDS011;65701;45.588;5.186;2023-11-19T17:25:57;27.00;;;23.25;;
76758;SDS011;65701;45.588;5.186;2023-11-19T17:28:23;19.00;;;17.75;;
76758;SDS011;65701;45.588;5.186;2023-11-19T17:30:50;20.00;;;16.25;;
76758;SDS011;65701;45.588;5.186;2023-11-19T17:33:16;23.25;;;23.25;;
76758;SDS011;65701;45.588;5.186;2023-11-19T17:35:41;18.00;;;18.00;;
76758;SDS011;65701;45.588;5.186;2023-11-19T17:38:07;21.50;;;19.25;;
76758;SDS011;65701;45.588;5.186;2023-11-19T17:40:32;22.25;;;20.00;;
76758;SDS011;65701;45.588;5.186;2023-11-19T17:42:58;19.00;;;16.50;;
76758;SDS011;65701;45.588;5.186;2023-11-19T17:45:23;20.50;;;19.25;;
76758;SDS011;65701;45.588;5.186;2023-11-19T17:47:50;38.50;;;34.00;;
76758;SDS011;65701;45.588;5.186;2023-11-19T17:50:15;34.00;;;33.00;;
76758;SDS011;65701;45.588;5.186;2023-11-19T17:52:41;52.00;;;42.25;;
76758;SDS011;65701;45.588;5.186;2023-11-19T17:55:07;22.00;;;19.75;;
76758;SDS011;65701;45.588;5.186;2023-11-19T17:57:37;21.75;;;20.25;;
76758;SDS011;65701;45.588;5.186;2023-11-19T18:00:04;24.00;;;18.25;;
76758;SDS011;65701;45.588;5.186;2023-11-19T18:02:33;22.75;;;19.00;;
76758;SDS011;65701;45.588;5.186;2023-11-19T18:04:58;22.25;;;20.25;;
76758;SDS011;65701;45.588;5.186;2023-11-19T18:07:31;17.75;;;16.25;;
76758;SDS011;65701;45.588;5.186;2023-11-19T18:09:57;20.25;;;19.50;;
76758;SDS011;65701;45.588;5.186;2023-11-19T18:12:23;25.00;;;23.50;;
76758;SDS011;65701;45.588;5.186;2023-11-19T18:14:49;24.25;;;23.00;;
76758;SDS011;65701;45.588;5.186;2023-11-19T18:17:15;22.50;;;21.50;;
76758;SDS011;65701;45.588;5.186;2023-11-19T18:19:41;19.50;;;15.00;;
76758;SDS011;65701;45.588;5.186;2023-11-19T18:22:10;18.25;;;18.25;;
76758;SDS011;65701;45.588;5.186;2023-11-19T18:24:36;19.00;;;14.75;;
76758;SDS011;65701;45.588;5.186;2023-11-19T18:27:02;20.25;;;20.25;;
76758;SDS011;65701;45.588;5.186;2023-11-19T18:29:28;14.50;;;14.00;;
76758;SDS011;65701;45.588;5.186;2023-11-19T18:31:53;18.00;;;15.50;;
76758;SDS011;65701;45.588;5.186;2023-11-19T18:34:20;14.75;;;13.75;;
76758;SDS011;65701;45.588;5.186;2023-11-19T18:36:46;26.00;;;23.50;;
76758;SDS011;65701;45.588;5.186;2023-11-19T18:39:17;36.25;;;33.50;;
76758;SDS011;65701;45.588;5.186;2023-11-19T18:41:43;19.75;;;19.50;;
76758;SDS011;65701;45.588;5.186;2023-11-19T18:44:08;13.25;;;10.00;;
76758;SDS011;65701;45.588;5.186;2023-11-19T18:46:38;13.50;;;13.50;;
76758;SDS011;65701;45.588;5.186;2023-11-19T18:49:04;9.75;;;9.75;;
76758;SDS011;65701;45.588;5.186;2023-11-19T18:51:30;10.00;;;10.00;;
76758;SDS011;65701;45.588;5.186;2023-11-19T18:53:56;8.00;;;8.00;;
76758;SDS011;65701;45.588;5.186;2023-11-19T18:56:22;9.75;;;9.75;;
76758;SDS011;65701;45.588;5.186;2023-11-19T18:58:48;10.75;;;9.00;;
76758;SDS011;65701;45.588;5.186;2023-11-19T19:01:16;14.00;;;10.75;;
76758;SDS011;65701;45.588;5.186;2023-11-19T19:03:43;15.00;;;15.00;;
76758;SDS011;65701;45.588;5.186;2023-11-19T19:06:09;13.00;;;12.25;;
76758;SDS011;65701;45.588;5.186;2023-11-19T19:08:34;19.25;;;18.50;;
76758;SDS011;65701;45.588;5.186;2023-11-19T19:11:01;12.75;;;11.25;;
76758;SDS011;65701;45.588;5.186;2023-11-19T19:13:27;19.25;;;17.50;;
76758;SDS011;65701;45.588;5.186;2023-11-19T19:15:52;17.75;;;17.75;;
76758;SDS011;65701;45.588;5.186;2023-11-19T19:18:18;17.00;;;17.00;;
76758;SDS011;65701;45.588;5.186;2023-11-19T19:20:44;15.00;;;13.75;;
76758;SDS011;65701;45.588;5.186;2023-11-19T19:23:10;14.75;;;14.25;;
76758;SDS011;65701;45.588;5.186;2023-11-19T19:25:36;21.50;;;20.75;;
76758;SDS011;65701;45.588;5.186;2023-11-19T19:28:02;21.75;;;20.50;;
76758;SDS011;65701;45.588;5.186;2023-11-19T19:30:28;19.25;;;18.00;;
76758;SDS011;65701;45.588;5.186;2023-11-19T19:32:53;14.75;;;11.25;;
76758;SDS011;65701;45.588;5.186;2023-11-19T19:35:19;15.25;;;15.00;;
76758;SDS011;65701;45.588;5.186;2023-11-19T19:37:47;15.00;;;15.00;;
76758;SDS011;65701;45.588;5.186;2023-11-19T19:40:13;15.00;;;14.75;;
76758;SDS011;65701;45.588;5.186;2023-11-19T19:42:39;14.75;;;14.75;;
76758;SDS011;65701;45.588;5.186;2023-11-19T19:45:06;19.00;;;14.75;;
76758;SDS011;65701;45.588;5.186;2023-11-19T19:47:32;18.00;;;18.00;;
76758;SDS011;65701;45.588;5.186;2023-11-19T19:49:57;17.75;;;16.50;;
76758;SDS011;65701;45.588;5.186;2023-11-19T19:52:23;16.75;;;12.75;;
76758;SDS011;65701;45.588;5.186;2023-11-19T19:54:48;16.50;;;14.75;;
76758;SDS011;65701;45.588;5.186;2023-11-19T19:57:14;15.00;;;12.50;;
76758;SDS011;65701;45.588;5.186;2023-11-19T19:59:40;15.25;;;13.00;;
76758;SDS011;65701;45.588;5.186;2023-11-19T20:02:06;11.25;;;10.25;;
76758;SDS011;65701;45.588;5.186;2023-11-19T20:04:32;16.25;;;14.25;;
76758;SDS011;65701;45.588;5.186;2023-11-19T20:06:57;7.00;;;7.00;;
76758;SDS011;65701;45.588;5.186;2023-11-19T20:09:23;12.00;;;12.00;;
76758;SDS011;65701;45.588;5.186;2023-11-19T20:11:49;10.25;;;10.25;;
76758;SDS011;65701;45.588;5.186;2023-11-19T20:14:16;13.75;;;12.00;;
76758;SDS011;65701;45.588;5.186;2023-11-19T20:16:47;15.50;;;13.25;;
76758;SDS011;65701;45.588;5.186;2023-11-19T20:19:13;13.75;;;12.00;;
76758;SDS011;65701;45.588;5.186;2023-11-19T20:21:39;44.50;;;39.00;;
76758;SDS011;65701;45.588;5.186;2023-11-19T20:24:04;13.25;;;13.25;;
76758;SDS011;65701;45.588;5.186;2023-11-19T20:26:30;17.25;;;15.25;;
76758;SDS011;65701;45.588;5.186;2023-11-19T20:28:56;26.00;;;20.75;;
76758;SDS011;65701;45.588;5.186;2023-11-19T20:31:21;25.00;;;23.00;;
76758;SDS011;65701;45.588;5.186;2023-11-19T20:33:47;28.25;;;22.00;;
76758;SDS011;65701;45.588;5.186;2023-11-19T20:36:12;26.00;;;25.75;;
76758;SDS011;65701;45.588;5.186;2023-11-19T20:38:40;24.25;;;22.75;;
76758;SDS011;65701;45.588;5.186;2023-11-19T20:41:06;20.00;;;16.75;;
76758;SDS011;65701;45.588;5.186;2023-11-19T20:43:31;15.75;;;14.00;;
76758;SDS011;65701;45.588;5.186;2023-11-19T20:45:57;21.00;;;18.00;;
76758;SDS011;65701;45.588;5.186;2023-11-19T20:48:24;16.00;;;13.50;;
76758;SDS011;65701;45.588;5.186;2023-11-19T20:50:50;16.00;;;15.00;;
76758;SDS011;65701;45.588;5.186;2023-11-19T20:53:15;13.00;;;11.75;;
76758;SDS011;65701;45.588;5.186;2023-11-19T20:55:41;14.00;;;12.50;;
76758;SDS011;65701;45.588;5.186;2023-11-19T20:58:09;9.75;;;8.25;;
76758;SDS011;65701;45.588;5.186;2023-11-19T21:00:36;11.75;;;10.00;;
76758;SDS011;65701;45.588;5.186;2023-11-19T21:03:08;11.75;;;8.50;;
76758;SDS011;65701;45.588;5.186;2023-11-19T21:05:36;9.75;;;9.50;;
76758;SDS011;65701;45.588;5.186;2023-11-19T21:08:03;10.00;;;10.00;;
76758;SDS011;65701;45.588;5.186;2023-11-19T21:10:29;11.50;;;9.75;;
76758;SDS011;65701;45.588;5.186;2023-11-19T21:12:55;12.25;;;10.50;;
76758;SDS011;65701;45.588;5.186;2023-11-19T21:15:20;12.25;;;10.75;;
76758;SDS011;65701;45.588;5.186;2023-11-19T21:17:46;12.50;;;10.00;;
76758;SDS011;65701;45.588;5.186;2023-11-19T21:20:11;8.00;;;8.00;;
76758;SDS011;65701;45.588;5.186;2023-11-19T21:22:37;9.75;;;8.75;;
76758;SDS011;65701;45.588;5.186;2023-11-19T21:25:04;12.00;;;10.50;;
76758;SDS011;65701;45.588;5.186;2023-11-19T21:27:30;15.25;;;12.00;;
76758;SDS011;65701;45.588;5.186;2023-11-19T21:29:59;10.75;;;10.75;;
76758;SDS011;65701;45.588;5.186;2023-11-19T21:32:25;12.00;;;11.75;;
76758;SDS011;65701;45.588;5.186;2023-11-19T21:34:51;14.25;;;12.75;;
76758;SDS011;65701;45.588;5.186;2023-11-19T21:37:17;11.00;;;11.00;;
76758;SDS011;65701;45.588;5.186;2023-11-19T21:39:43;8.50;;;8.50;;
76758;SDS011;65701;45.588;5.186;2023-11-19T21:42:08;9.25;;;8.25;;
76758;SDS011;65701;45.588;5.186;2023-11-19T21:44:34;5.50;;;4.50;;
